Time;durP1;ratioP1;P1;durP2;ratioP2;P2;SDS_P1;SDS_P2;PMS_P1;PMS_P2;Temp;Humidity;BMP_temperature;BMP_pressure;BME280_temperature;BME280_humidity;BME280_pressure;Samples;Min_cycle;Max_cycle;Signal;HPM_P1;HPM_P2
2022/12/05 00:01:30;;;;;;;3.08;1.95;;;;;;;6.96;90.72;101937.59;5056384;28;20033;-75
2022/12/05 00:03:58;;;;;;;3.17;1.83;;;;;;;7.22;90.52;101984.53;5051403;28;20039;-74
2022/12/05 00:06:25;;;;;;;2.83;2.08;;;;;;;7.26;90.38;101979.91;5049343;28;20025;-74
2022/12/05 00:08:51;;;;;;;2.65;1.92;;;;;;;7.28;89.66;101978.91;5049513;28;20036;-76
2022/12/05 00:11:31;;;;;;;3.00;2.22;;;;;;;7.30;89.67;101979.72;5049053;28;20029;-75
2022/12/05 00:13:58;;;;;;;3.08;2.05;;;;;;;7.33;89.68;101986.75;5049176;28;20087;-74
2022/12/05 00:16:26;;;;;;;2.25;2.05;;;;;;;7.23;89.48;101970.22;5048045;28;20072;-75
2022/12/05 00:18:53;;;;;;;5.00;2.15;;;;;;;7.23;89.89;101972.03;5048778;28;20029;-74
2022/12/05 00:21:24;;;;;;;2.45;1.77;;;;;;;7.25;90.36;101983.56;5048991;28;20403;-74
2022/12/05 00:23:51;;;;;;;2.72;2.03;;;;;;;7.21;90.46;101982.81;5048870;28;20357;-75
2022/12/05 00:26:16;;;;;;;2.03;1.60;;;;;;;7.26;90.96;101996.84;5048791;28;20029;-73
2022/12/05 00:28:42;;;;;;;4.15;1.92;;;;;;;7.31;90.57;101973.41;5048804;28;20079;-74
2022/12/05 00:31:11;;;;;;;4.90;2.40;;;;;;;7.25;90.55;101984.41;5048865;28;20028;-74
2022/12/05 00:33:37;;;;;;;3.03;2.00;;;;;;;7.38;90.97;101984.72;5048924;28;20091;-76
2022/12/05 00:36:10;;;;;;;2.33;1.92;;;;;;;7.33;90.23;101971.56;5047597;28;20417;-76
2022/12/05 00:38:36;;;;;;;3.00;1.70;;;;;;;7.09;90.64;101935.22;5048804;28;20029;-75
2022/12/05 00:41:06;;;;;;;6.13;2.67;;;;;;;7.29;90.89;101963.72;5048801;28;20033;-75
2022/12/05 00:43:32;;;;;;;4.50;2.38;;;;;;;7.28;90.90;101973.56;5050955;28;20086;-76
2022/12/05 00:46:06;;;;;;;3.58;1.50;;;;;;;7.34;90.85;101961.72;5059217;28;20032;-75
2022/12/05 00:48:32;;;;;;;2.10;1.80;;;;;;;7.31;90.23;101957.34;5061698;28;20071;-75
2022/12/05 00:51:15;;;;;;;2.53;1.80;;;;;;;7.39;89.81;101960.56;5052278;28;20056;-75
2022/12/05 00:53:41;;;;;;;4.03;1.92;;;;;;;7.29;90.30;101964.59;5052656;28;20029;-77
2022/12/05 00:56:10;;;;;;;2.88;1.67;;;;;;;7.17;90.32;101959.81;5050596;28;20032;-74
2022/12/05 00:58:36;;;;;;;2.95;2.22;;;;;;;7.20;91.02;101946.28;5048970;28;20114;-75
2022/12/05 01:01:11;;;;;;;2.10;1.88;;;;;;;7.16;90.91;101966.09;5048881;28;20037;-76
2022/12/05 01:03:37;;;;;;;5.03;2.22;;;;;;;7.09;91.50;101948.59;5056229;28;20021;-76
2022/12/05 01:06:04;;;;;;;3.83;2.17;;;;;;;7.12;91.73;101957.34;5055357;28;20035;-76
2022/12/05 01:08:31;;;;;;;3.05;1.92;;;;;;;7.10;91.51;101950.31;5050895;28;20086;-74
2022/12/05 01:10:57;;;;;;;3.72;1.90;;;;;;;7.13;91.56;101958.22;5048670;28;20061;-74
2022/12/05 01:13:24;;;;;;;3.35;2.13;;;;;;;7.13;91.59;101960.88;5048658;28;20067;-74
2022/12/05 01:15:50;;;;;;;3.70;1.90;;;;;;;7.15;91.81;101961.69;5048178;28;20384;-76
2022/12/05 01:18:16;;;;;;;3.45;2.03;;;;;;;7.10;91.26;101944.97;5048529;28;20089;-75
2022/12/05 01:20:42;;;;;;;3.20;1.75;;;;;;;7.08;90.98;101945.06;5048356;28;20107;-75
2022/12/05 01:23:09;;;;;;;3.75;2.05;;;;;;;6.96;91.35;101952.78;5048339;28;20025;-75
2022/12/05 01:25:39;;;;;;;2.92;2.22;;;;;;;6.96;91.83;101944.75;5048490;28;20029;-76
2022/12/05 01:28:04;;;;;;;3.22;1.85;;;;;;;7.03;91.70;101940.88;5052330;28;20036;-75
2022/12/05 01:30:29;;;;;;;3.20;1.92;;;;;;;7.07;91.33;101950.47;5052349;28;20037;-75
2022/12/05 01:32:55;;;;;;;2.53;1.80;;;;;;;7.01;90.46;101948.06;5052135;28;20401;-77
2022/12/05 01:35:20;;;;;;;2.03;1.77;;;;;;;6.98;90.61;101932.16;5052182;28;20549;-75
2022/12/05 01:37:46;;;;;;;4.28;2.08;;;;;;;6.95;91.29;101934.97;5052062;28;20033;-74
2022/12/05 01:40:11;;;;;;;2.03;1.83;;;;;;;7.01;91.49;101937.38;5052315;28;20036;-74
2022/12/05 01:42:38;;;;;;;2.05;1.77;;;;;;;6.97;91.22;101927.78;5052378;28;20048;-74
2022/12/05 01:45:21;;;;;;;2.38;1.95;;;;;;;6.93;91.05;101918.13;5051992;28;20072;-75
2022/12/05 01:47:46;;;;;;;2.60;2.10;;;;;;;6.89;91.57;101912.06;5050620;28;20404;-74
2022/12/05 01:50:12;;;;;;;2.05;1.85;;;;;;;6.91;91.96;101894.13;5049318;28;20061;-76
2022/12/05 01:52:39;;;;;;;1.92;1.55;;;;;;;6.93;91.84;101891.41;5051907;28;20036;-75
2022/12/05 01:55:09;;;;;;;2.03;1.83;;;;;;;7.06;91.07;101901.44;5051871;28;20080;-76
2022/12/05 01:57:35;;;;;;;1.80;1.70;;;;;;;7.04;90.92;101894.44;5051970;28;20036;-74
2022/12/05 02:00:20;;;;;;;2.70;1.70;;;;;;;6.80;90.42;101858.13;5051764;28;20116;-75
2022/12/05 02:02:51;;;;;;;4.88;2.58;;;;;;;6.97;90.69;101887.66;5051233;28;20025;-76
2022/12/05 02:05:21;;;;;;;4.85;2.15;;;;;;;6.96;91.11;101896.59;5052013;28;20068;-74
2022/12/05 02:07:46;;;;;;;2.10;1.90;;;;;;;6.86;91.40;101885.47;5056166;28;20033;-76
2022/12/05 02:10:12;;;;;;;2.15;1.95;;;;;;;6.90;91.77;101889.75;5057667;28;20037;-76
2022/12/05 02:12:38;;;;;;;2.45;2.10;;;;;;;6.98;91.55;101894.72;5054477;28;20412;-75
2022/12/05 02:15:03;;;;;;;2.95;2.20;;;;;;;6.55;91.42;101837.88;5051642;28;20428;-75
2022/12/05 02:17:47;;;;;;;3.03;2.38;;;;;;;6.92;91.80;101893.19;5052332;28;20025;-76
2022/12/05 02:20:28;;;;;;;3.88;2.80;;;;;;;6.89;91.79;101896.00;5051358;28;20031;-74
2022/12/05 02:23:24;;;;;;;3.63;2.80;;;;;;;6.65;91.85;101848.13;5051626;28;20029;-75
2022/12/05 02:26:11;;;;;;;2.55;2.35;;;;;;;6.82;91.88;101899.91;5051262;28;20139;-74
2022/12/05 02:28:40;;;;;;;2.47;2.25;;;;;;;6.86;92.47;101884.59;5051162;28;20024;-75
2022/12/05 02:31:36;;;;;;;4.30;2.63;;;;;;;6.73;92.64;101884.28;5051112;28;20465;-76
2022/12/05 02:34:05;;;;;;;8.23;2.72;;;;;;;6.76;92.61;101883.28;5051022;28;20035;-75
2022/12/05 02:36:47;;;;;;;4.10;2.33;;;;;;;6.69;92.62;101898.75;5050743;28;20024;-75
2022/12/05 02:39:20;;;;;;;2.78;2.30;;;;;;;6.66;93.02;101892.66;5050525;28;20032;-77
2022/12/05 02:42:01;;;;;;;3.55;3.10;;;;;;;6.53;93.36;101865.59;5051068;28;20035;-75
2022/12/05 02:44:33;;;;;;;5.53;2.60;;;;;;;6.73;93.72;101903.00;5050684;28;20035;-75
2022/12/05 02:46:59;;;;;;;2.53;2.33;;;;;;;6.52;93.75;101880.78;5050738;28;20044;-75
2022/12/05 02:49:30;;;;;;;3.50;2.72;;;;;;;6.74;93.09;101903.88;5050879;28;20029;-75
2022/12/05 02:51:58;;;;;;;3.22;2.92;;;;;;;6.75;93.22;101921.66;5050927;28;20049;-75
2022/12/05 02:54:28;;;;;;;3.15;2.53;;;;;;;6.78;92.96;101918.84;5050668;28;20414;-75
2022/12/05 02:56:57;;;;;;;3.97;2.92;;;;;;;6.84;93.02;101903.38;5050474;28;20033;-74
2022/12/05 02:59:22;;;;;;;3.35;2.08;;;;;;;6.87;92.61;101921.97;5050603;28;20116;-75
2022/12/05 03:01:48;;;;;;;2.53;2.30;;;;;;;6.74;91.75;101885.16;5050526;28;20437;-74
2022/12/05 03:04:16;;;;;;;5.35;2.10;;;;;;;7.00;92.13;101930.31;5050541;28;20027;-74
2022/12/05 03:06:47;;;;;;;3.92;3.05;;;;;;;6.89;91.94;101920.09;5050307;28;20135;-73
2022/12/05 03:09:18;;;;;;;1.85;1.75;;;;;;;6.93;91.84;101932.38;5050417;28;20104;-74
2022/12/05 03:11:48;;;;;;;2.83;2.45;;;;;;;6.92;92.55;101927.09;5054345;28;20108;-75
2022/12/05 03:14:22;;;;;;;2.90;2.38;;;;;;;6.94;92.72;101935.94;5057192;28;20075;-76
2022/12/05 03:16:53;;;;;;;3.55;2.70;;;;;;;6.91;92.28;101936.06;5054391;28;20029;-75
2022/12/05 03:19:34;;;;;;;4.57;2.55;;;;;;;6.88;92.64;101926.34;5050160;28;20498;-74
2022/12/05 03:22:09;;;;;;;3.00;1.98;;;;;;;6.92;92.21;101933.31;5049798;28;20033;-75
2022/12/05 03:24:38;;;;;;;3.10;2.70;;;;;;;6.95;92.09;101918.94;5050371;28;20025;-73
2022/12/05 03:27:29;;;;;;;4.70;2.17;;;;;;;6.93;91.96;101926.16;5049884;28;20035;-73
2022/12/05 03:29:57;;;;;;;4.28;2.75;;;;;;;6.96;91.86;101936.72;5050126;28;20411;-75
2022/12/05 03:32:40;;;;;;;2.78;1.98;;;;;;;6.96;91.77;101932.25;5049731;28;20037;-74
2022/12/05 03:35:29;;;;;;;3.15;2.45;;;;;;;7.06;91.66;101919.31;5050131;28;20493;-75
2022/12/05 03:38:07;;;;;;;3.42;2.67;;;;;;;7.15;91.50;101907.31;5049518;28;20099;-75
2022/12/05 03:40:50;;;;;;;1.73;1.63;;;;;;;7.19;91.43;101923.13;5049747;28;20021;-76
2022/12/05 03:43:33;;;;;;;2.35;2.15;;;;;;;7.12;90.89;101914.53;5049811;28;20025;-74
2022/12/05 03:46:03;;;;;;;;;;;;;;;7.20;91.65;101916.00;5050359;28;20033;-74
2022/12/05 03:48:49;;;;;;;2.58;2.38;;;;;;;7.25;91.69;101904.13;5049593;28;19905;-74
2022/12/05 03:51:18;;;;;;;3.38;2.33;;;;;;;7.23;91.26;101919.41;5052030;28;20159;-75
2022/12/05 03:53:52;;;;;;;3.17;2.10;;;;;;;7.28;91.51;101909.31;5055875;28;20535;-75
2022/12/05 03:56:26;;;;;;;2.72;2.33;;;;;;;7.11;91.21;101879.84;5056104;28;20108;-75
2022/12/05 03:59:04;;;;;;;2.88;2.35;;;;;;;7.38;90.84;101921.34;5051353;28;20028;-74
2022/12/05 04:01:31;;;;;;;3.25;2.40;;;;;;;7.36;90.90;101923.25;5049626;28;20484;-75
2022/12/05 04:04:04;;;;;;;3.17;2.13;;;;;;;7.30;90.41;101911.94;5049787;28;20025;-74
2022/12/05 04:06:34;;;;;;;3.03;2.47;;;;;;;7.41;90.60;101931.91;5049807;28;20048;-75
2022/12/05 04:09:05;;;;;;;4.30;2.33;;;;;;;7.42;90.68;101916.72;5049727;28;20047;-76
2022/12/05 04:11:35;;;;;;;6.07;2.45;;;;;;;7.42;91.07;101932.78;5049885;28;20033;-74
2022/12/05 04:14:18;;;;;;;3.30;3.00;;;;;;;7.19;90.76;101892.84;5049770;28;20029;-75
2022/12/05 04:17:04;;;;;;;4.68;2.90;;;;;;;7.44;90.59;101937.13;5053846;28;20028;-76
2022/12/05 04:22:33;;;;;;;4.65;2.95;;;;;;;7.46;89.99;101929.88;5049270;28;20188;-74
2022/12/05 04:28:00;;;;;;;4.18;3.10;;;;;;;7.47;90.21;101926.25;5048665;28;20031;-75
2022/12/05 04:30:36;;;;;;;5.45;3.00;;;;;;;7.51;90.38;101922.50;5048704;28;20036;-74
2022/12/05 04:33:39;;;;;;;3.83;3.42;;;;;;;7.46;90.39;101929.03;5048965;28;20115;-75
2022/12/05 04:36:17;;;;;;;3.55;3.20;;;;;;;7.51;90.68;101933.22;5062813;28;20037;-75
2022/12/05 04:38:49;;;;;;;5.15;3.05;;;;;;;7.53;90.49;101942.03;5048615;28;20466;-74
2022/12/05 04:41:26;;;;;;;;;;;;;;;7.55;90.37;101950.00;5048992;28;20051;-74
2022/12/05 04:43:55;;;;;;;5.28;3.58;;;;;;;7.23;91.16;101911.38;5048613;28;19912;-74
2022/12/05 04:46:21;;;;;;;5.40;3.42;;;;;;;7.54;91.19;101949.13;5048491;28;20029;-75
2022/12/05 04:48:51;;;;;;;5.40;3.50;;;;;;;7.64;90.86;101944.19;5048640;28;20061;-75
2022/12/05 04:51:22;;;;;;;5.75;3.22;;;;;;;7.66;90.87;101943.19;5048585;28;20488;-74
2022/12/05 04:53:53;;;;;;;3.72;2.95;;;;;;;7.74;90.41;101949.94;5048562;28;20082;-76
2022/12/05 04:56:21;;;;;;;2.90;2.67;;;;;;;7.84;89.65;101952.13;5048417;28;20044;-73
2022/12/05 04:58:46;;;;;;;4.22;3.20;;;;;;;7.78;89.42;101962.25;5048377;28;20037;-75
2022/12/05 05:01:21;;;;;;;3.63;3.13;;;;;;;7.79;89.43;101958.66;5047964;28;20099;-75
2022/12/05 05:03:54;;;;;;;3.58;3.08;;;;;;;7.75;88.80;101962.41;5055188;28;20029;-75
2022/12/05 05:06:20;;;;;;;8.77;3.03;;;;;;;7.85;89.08;101958.34;5054763;28;20029;-75
2022/12/05 05:08:51;;;;;;;6.43;3.40;;;;;;;7.97;88.61;101960.44;5055335;28;20036;-74
2022/12/05 05:11:25;;;;;;;3.63;2.83;;;;;;;7.71;87.57;101917.97;5055205;28;20025;-75
2022/12/05 05:13:51;;;;;;;6.68;4.13;;;;;;;7.98;88.03;101960.34;5055295;28;20051;-76
2022/12/05 05:16:24;;;;;;;4.35;2.70;;;;;;;8.00;87.40;101973.69;5053704;28;20021;-74
2022/12/05 05:18:50;;;;;;;5.22;3.20;;;;;;;7.74;87.14;101933.88;5055820;28;20496;-75
2022/12/05 05:21:26;;;;;;;3.90;2.55;;;;;;;7.80;87.70;101963.06;5063411;28;20100;-76
2022/12/05 05:23:52;;;;;;;3.92;2.47;;;;;;;7.67;87.96;101926.16;5065009;28;20389;-76
2022/12/05 05:26:19;;;;;;;4.47;3.25;;;;;;;7.94;87.41;101957.91;5056750;28;20104;-74
2022/12/05 05:28:45;;;;;;;9.02;4.43;;;;;;;7.90;87.25;101972.38;5055058;28;20035;-77
2022/12/05 05:31:11;;;;;;;5.35;2.58;;;;;;;7.94;87.04;101963.25;5052720;28;20040;-74
2022/12/05 05:33:37;;;;;;;3.30;2.60;;;;;;;8.02;87.25;101977.13;5054812;28;20095;-75
2022/12/05 05:36:07;;;;;;;3.55;2.40;;;;;;;8.02;86.82;101971.78;5055210;28;20451;-74
2022/12/05 05:38:37;;;;;;;3.72;2.30;;;;;;;7.84;86.56;101945.91;5055101;28;20108;-77
2022/12/05 05:41:03;;;;;;;6.05;3.55;;;;;;;8.09;86.32;101968.72;5055115;28;20035;-75
2022/12/05 05:43:28;;;;;;;2.47;2.20;;;;;;;8.07;86.49;101965.25;5054740;28;20112;-77
2022/12/05 05:45:54;;;;;;;4.88;2.55;;;;;;;8.17;85.78;101965.66;5055419;28;20037;-77
2022/12/05 05:48:20;;;;;;;3.38;2.53;;;;;;;8.12;86.05;101967.72;5055066;28;20043;-78
2022/12/05 05:50:45;;;;;;;5.03;2.58;;;;;;;8.17;85.74;101968.34;5055010;28;20044;-78
2022/12/05 05:53:11;;;;;;;2.35;2.15;;;;;;;7.97;85.07;101968.47;5054950;28;20016;-77
2022/12/05 05:55:39;;;;;;;6.05;2.58;;;;;;;7.96;85.37;101972.06;5054849;28;20036;-77
2022/12/05 05:58:05;;;;;;;5.90;2.90;;;;;;;7.89;86.06;101971.50;5053915;28;20100;-77
2022/12/05 06:00:32;;;;;;;7.03;3.28;;;;;;;7.76;86.31;101962.34;5054838;28;20063;-77
2022/12/05 06:02:57;;;;;;;3.42;2.70;;;;;;;7.50;87.15;101931.47;5054795;28;20029;-75
2022/12/05 06:05:23;;;;;;;7.15;3.40;;;;;;;7.66;87.45;101969.09;5054248;28;21106;-75
2022/12/05 06:07:48;;;;;;;4.97;3.10;;;;;;;7.44;87.84;101942.47;5054787;28;20063;-75
2022/12/05 06:10:13;;;;;;;5.10;3.45;;;;;;;7.51;88.11;101946.59;5054717;28;20056;-75
2022/12/05 06:12:39;;;;;;;7.35;4.55;;;;;;;7.65;88.07;101957.50;5052641;28;20025;-76
2022/12/05 06:15:05;;;;;;;4.20;3.33;;;;;;;7.79;88.40;101972.03;5051639;28;20029;-76
2022/12/05 06:17:31;;;;;;;6.30;3.42;;;;;;;7.81;88.11;101972.81;5051613;28;20017;-74
2022/12/05 06:19:56;;;;;;;9.38;3.92;;;;;;;7.85;88.09;101974.44;5051402;28;20021;-74
2022/12/05 06:22:21;;;;;;;5.18;3.45;;;;;;;7.55;87.79;101940.13;5051314;28;20028;-75
2022/12/05 06:24:47;;;;;;;4.13;2.95;;;;;;;7.74;87.62;101966.91;5057526;28;20036;-75
2022/12/05 06:27:12;;;;;;;5.68;3.53;;;;;;;7.84;87.97;101986.06;5057878;28;20551;-76
2022/12/05 06:29:38;;;;;;;7.10;3.75;;;;;;;7.88;88.27;101990.34;5051330;28;21102;-75
2022/12/05 06:32:04;;;;;;;8.15;4.57;;;;;;;7.74;87.72;101966.91;5051313;28;20021;-75
2022/12/05 06:34:31;;;;;;;7.22;4.40;;;;;;;7.82;88.03;101996.00;5051485;28;20067;-76
2022/12/05 06:36:58;;;;;;;14.18;5.75;;;;;;;7.80;88.22;101997.91;5050936;28;20025;-75
2022/12/05 06:39:23;;;;;;;9.60;4.70;;;;;;;7.90;88.10;101988.44;5051250;28;20025;-75
2022/12/05 06:41:48;;;;;;;4.07;3.13;;;;;;;7.87;88.44;101988.59;5049661;28;20503;-76
2022/12/05 06:44:14;;;;;;;11.95;5.45;;;;;;;7.91;88.56;101992.88;5052770;28;20416;-77
2022/12/05 06:46:39;;;;;;;15.25;7.28;;;;;;;7.65;88.43;101973.56;5060460;28;20039;-75
2022/12/05 06:49:05;;;;;;;7.47;4.47;;;;;;;7.84;88.72;101994.09;5072159;28;20055;-76
2022/12/05 06:51:30;;;;;;;7.78;4.50;;;;;;;7.77;88.52;101973.94;5051239;28;20057;-75
2022/12/05 06:53:56;;;;;;;8.30;4.10;;;;;;;7.92;88.51;101991.94;5052035;28;20040;-75
2022/12/05 06:56:21;;;;;;;10.60;3.88;;;;;;;7.95;88.81;101984.59;5052733;28;20020;-76
2022/12/05 06:58:48;;;;;;;4.13;3.42;;;;;;;7.86;87.99;101977.00;5051069;28;20039;-75
2022/12/05 07:01:39;;;;;;;15.00;5.28;;;;;;;8.09;87.89;101997.34;5051291;28;20025;-75
2022/12/05 07:04:14;;;;;;;4.88;3.17;;;;;;;7.91;87.35;101991.06;5050758;28;20032;-76
2022/12/05 07:06:42;;;;;;;5.38;4.07;;;;;;;8.11;87.67;101998.13;5050781;28;20116;-75
2022/12/05 07:09:08;;;;;;;5.85;3.50;;;;;;;8.09;87.16;102005.38;5050393;28;20032;-75
2022/12/05 07:11:34;;;;;;;5.55;3.30;;;;;;;8.18;87.73;102012.97;5050695;28;20017;-75
2022/12/05 07:13:59;;;;;;;5.20;2.95;;;;;;;8.23;87.19;102008.22;5050925;28;20035;-74
2022/12/05 07:16:25;;;;;;;7.28;3.50;;;;;;;8.16;86.81;101990.75;5050536;28;20021;-75
2022/12/05 07:18:50;;;;;;;8.23;3.88;;;;;;;8.21;86.28;102005.63;5050485;28;20445;-76
2022/12/05 07:21:16;;;;;;;5.50;3.63;;;;;;;8.21;86.60;102004.78;5050370;28;20021;-75
2022/12/05 07:23:45;;;;;;;4.72;3.28;;;;;;;8.28;86.96;102011.59;5050199;28;20120;-74
2022/12/05 07:26:13;;;;;;;11.25;3.97;;;;;;;8.09;86.41;101979.44;5051546;28;20040;-75
2022/12/05 07:28:38;;;;;;;7.43;3.85;;;;;;;8.30;86.43;102012.38;5056430;28;20064;-76
2022/12/05 07:31:10;;;;;;;6.93;4.53;;;;;;;8.22;86.59;102002.00;5056616;28;20079;-77
2022/12/05 07:33:36;;;;;;;5.82;3.53;;;;;;;8.22;86.33;102002.00;5050312;28;20480;-75
2022/12/05 07:36:06;;;;;;;6.00;3.70;;;;;;;8.32;86.49;102006.97;5049931;28;20021;-74
2022/12/05 07:38:31;;;;;;;7.15;3.35;;;;;;;8.37;85.71;102000.41;5050251;28;20111;-74
2022/12/05 07:40:57;;;;;;;7.05;4.20;;;;;;;8.41;85.77;101996.63;5049961;28;20457;-74
2022/12/05 07:43:23;;;;;;;8.82;4.45;;;;;;;8.52;85.66;101998.75;5049938;28;20048;-74
2022/12/05 07:45:49;;;;;;;6.28;3.42;;;;;;;8.41;84.93;101985.06;5049948;28;20031;-76
2022/12/05 07:48:14;;;;;;;4.60;3.10;;;;;;;8.50;84.68;102001.50;5049935;28;20033;-75
2022/12/05 07:50:40;;;;;;;7.95;4.05;;;;;;;8.60;85.00;102008.16;5049668;28;20053;-75
2022/12/05 07:53:05;;;;;;;9.45;3.30;;;;;;;8.49;83.99;102002.47;5049535;28;20040;-75
2022/12/05 07:55:30;;;;;;;5.20;3.78;;;;;;;8.35;85.04;102001.44;5050107;28;20029;-75
2022/12/05 07:57:56;;;;;;;10.25;5.00;;;;;;;8.48;85.54;102022.19;5051259;28;20025;-75
2022/12/05 08:00:21;;;;;;;14.10;5.78;;;;;;;8.50;85.53;102020.28;5052600;28;20514;-75
2022/12/05 08:02:47;;;;;;;8.32;5.22;;;;;;;8.55;84.63;102020.94;5051260;28;20120;-75
2022/12/05 08:05:14;;;;;;;9.02;4.40;;;;;;;8.24;84.89;101961.72;5050764;28;20476;-76
2022/12/05 08:07:40;;;;;;;7.60;4.13;;;;;;;8.66;84.34;102013.19;5050568;28;20029;-76
2022/12/05 08:10:06;;;;;;;4.65;3.22;;;;;;;8.67;84.01;102024.81;5051359;28;20362;-75
2022/12/05 08:12:31;;;;;;;9.75;4.40;;;;;;;8.60;84.33;102018.88;5053313;28;20025;-76
2022/12/05 08:14:57;;;;;;;6.30;4.25;;;;;;;8.41;84.30;101985.88;5052355;28;20079;-75
2022/12/05 08:17:22;;;;;;;4.55;3.40;;;;;;;8.74;84.20;102013.66;5051480;28;20104;-76
2022/12/05 08:19:48;;;;;;;6.95;4.63;;;;;;;8.88;83.99;102023.69;5049704;28;20036;-75
2022/12/05 08:22:13;;;;;;;11.02;4.65;;;;;;;8.89;83.05;102013.84;5049789;28;20021;-75
2022/12/05 08:24:38;;;;;;;22.27;4.55;;;;;;;8.85;82.79;101996.16;5049403;28;20115;-75
2022/12/05 08:27:04;;;;;;;9.13;4.53;;;;;;;8.97;82.74;102023.22;5050197;28;20131;-76
2022/12/05 08:29:30;;;;;;;8.70;3.78;;;;;;;8.77;82.40;101978.63;5050011;28;20114;-75
2022/12/05 08:31:55;;;;;;;5.80;3.63;;;;;;;8.98;82.23;102013.34;5053265;28;20075;-76
2022/12/05 08:34:21;;;;;;;6.68;4.32;;;;;;;9.01;82.01;102014.06;5051138;28;20036;-74
2022/12/05 08:36:47;;;;;;;8.40;3.90;;;;;;;8.95;81.95;101986.69;5048733;28;20025;-75
2022/12/05 08:39:15;;;;;;;6.65;4.03;;;;;;;9.26;81.69;102014.47;5049077;28;20471;-74
2022/12/05 08:41:45;;;;;;;7.60;3.72;;;;;;;9.27;81.43;102013.53;5049027;28;20112;-74
2022/12/05 08:44:15;;;;;;;7.70;4.05;;;;;;;9.39;81.03;102011.13;5048686;28;20033;-76
2022/12/05 08:46:42;;;;;;;10.38;3.65;;;;;;;9.46;80.26;102013.38;5048813;28;20025;-74
2022/12/05 08:49:07;;;;;;;11.38;6.28;;;;;;;9.33;80.10;101985.47;5048517;28;20032;-75
2022/12/05 08:51:33;;;;;;;6.47;5.22;;;;;;;9.25;79.55;101952.81;5048430;28;20412;-74
2022/12/05 08:54:02;;;;;;;5.28;3.97;;;;;;;9.60;79.12;102010.81;5048619;28;20035;-74
2022/12/05 08:56:27;;;;;;;7.20;3.83;;;;;;;9.61;78.95;102004.50;5048430;28;20484;-75
2022/12/05 08:58:53;;;;;;;8.48;3.72;;;;;;;9.71;78.16;101999.47;5048508;28;20028;-75
2022/12/05 09:01:20;;;;;;;7.88;3.47;;;;;;;9.43;78.14;101984.03;5048618;28;20029;-76
2022/12/05 09:03:46;;;;;;;5.07;3.22;;;;;;;9.31;78.23;101973.94;5048733;28;20040;-75
2022/12/05 09:06:18;;;;;;;8.60;3.55;;;;;;;9.49;78.14;101994.41;5048772;28;20029;-75
2022/12/05 09:08:44;;;;;;;6.10;3.42;;;;;;;9.59;77.88;102006.41;5048485;28;20025;-75
2022/12/05 09:11:17;;;;;;;6.97;3.70;;;;;;;9.60;77.99;102013.50;5048864;28;20094;-75
2022/12/05 09:13:42;;;;;;;15.98;4.07;;;;;;;9.60;77.71;102008.13;5047242;28;20473;-75
2022/12/05 09:16:30;;;;;;;11.30;3.53;;;;;;;9.75;77.55;102012.63;5048594;28;20108;-76
2022/12/05 09:18:56;;;;;;;4.90;3.22;;;;;;;9.70;77.55;101982.47;5048649;28;20091;-76
2022/12/05 09:21:24;;;;;;;10.90;4.55;;;;;;;9.83;76.75;102007.72;5049056;28;20029;-75
2022/12/05 09:23:50;;;;;;;26.33;4.82;;;;;;;9.54;76.93;101941.31;5048685;28;20039;-75
2022/12/05 09:26:19;;;;;;;10.38;4.85;;;;;;;9.72;76.86;101968.97;5049097;28;20021;-75
2022/12/05 09:28:45;;;;;;;8.63;4.35;;;;;;;10.00;76.59;101989.78;5048712;28;20021;-76
2022/12/05 09:31:23;;;;;;;7.18;4.18;;;;;;;9.90;76.68;101993.94;5049074;28;20025;-76
2022/12/05 09:33:50;;;;;;;17.20;4.13;;;;;;;10.00;76.56;101990.63;5049735;28;20033;-76
2022/12/05 09:36:24;;;;;;;6.95;3.70;;;;;;;10.23;75.77;101986.66;5050392;28;20511;-76
2022/12/05 09:38:51;;;;;;;12.25;4.28;;;;;;;10.32;75.50;101980.72;5050330;28;20033;-75
2022/12/05 09:44:52;;;;;;;7.22;3.80;;;;;;;10.30;73.61;101988.03;5048459;28;20043;-77
2022/12/05 09:47:26;;;;;;;9.63;4.00;;;;;;;10.32;74.04;101981.59;5049014;28;20036;-77
2022/12/05 09:50:01;;;;;;;7.75;4.22;;;;;;;10.40;73.60;101989.19;5066695;28;20052;-75
2022/12/05 09:52:37;;;;;;;6.88;3.50;;;;;;;10.32;73.48;101986.09;5052519;28;20033;-76
2022/12/05 09:55:10;;;;;;;11.73;4.63;;;;;;;10.37;73.25;101994.75;5051992;28;20035;-75
2022/12/05 09:57:39;;;;;;;5.93;3.47;;;;;;;10.47;73.43;101985.19;5051677;28;20037;-75
2022/12/05 10:00:06;;;;;;;5.13;3.78;;;;;;;10.61;73.71;101987.94;5051624;28;20029;-75
2022/12/05 10:02:41;;;;;;;7.75;4.22;;;;;;;10.39;71.86;101974.03;5049663;28;20037;-76
2022/12/05 10:05:17;;;;;;;5.82;3.33;;;;;;;10.63;71.95;101985.16;5051745;28;20473;-73
2022/12/05 10:07:48;;;;;;;7.50;3.88;;;;;;;10.61;71.98;101979.84;5051548;28;20488;-75
2022/12/05 10:10:32;;;;;;;15.27;6.55;;;;;;;10.71;71.04;101989.13;5051709;28;20486;-74
2022/12/05 10:13:12;;;;;;;9.32;4.28;;;;;;;10.52;70.51;101956.19;5051514;28;20039;-75
2022/12/05 10:15:46;;;;;;;6.57;3.35;;;;;;;10.47;70.38;101982.50;5051755;28;20052;-74
2022/12/05 10:18:27;;;;;;;8.23;3.40;;;;;;;10.39;70.90;101976.72;5051556;28;20349;-75
2022/12/05 10:21:04;;;;;;;5.75;3.28;;;;;;;10.35;70.82;101964.41;5052124;28;20037;-74
2022/12/05 10:23:51;;;;;;;8.13;2.90;;;;;;;10.46;71.45;101974.56;5051373;28;20386;-75
2022/12/05 10:26:18;;;;;;;7.53;3.55;;;;;;;10.45;71.43;101965.59;5051145;28;20033;-76
2022/12/05 10:29:24;;;;;;;5.30;3.38;;;;;;;10.43;71.08;101956.75;5051364;28;20028;-76
2022/12/05 10:31:55;;;;;;;6.60;3.58;;;;;;;10.46;69.85;101966.47;5051861;28;20021;-76
2022/12/05 10:34:26;;;;;;;5.65;3.17;;;;;;;10.24;70.61;101964.19;5050350;28;20029;-75
2022/12/05 10:37:14;;;;;;;6.47;3.55;;;;;;;10.12;71.24;101964.88;5051667;28;20029;-75
2022/12/05 10:39:39;;;;;;;5.13;3.08;;;;;;;10.10;71.47;101964.06;5058537;28;20028;-76
2022/12/05 10:42:08;;;;;;;8.00;3.47;;;;;;;9.97;72.39;101960.38;5058204;28;20021;-75
2022/12/05 10:44:34;;;;;;;10.70;3.90;;;;;;;10.10;72.29;101954.19;5051751;28;20025;-75
2022/12/05 10:47:00;;;;;;;7.95;3.30;;;;;;;10.14;71.64;101944.16;5050808;28;20082;-75
2022/12/05 10:49:26;;;;;;;9.77;3.90;;;;;;;10.12;71.54;101946.06;5050753;28;20064;-75
2022/12/05 10:51:52;;;;;;;6.05;3.35;;;;;;;10.09;71.29;101952.44;5050541;28;20128;-75
2022/12/05 10:54:24;;;;;;;8.75;3.50;;;;;;;10.06;72.51;101943.72;5051403;28;20064;-75
2022/12/05 10:56:52;;;;;;;7.40;3.65;;;;;;;10.21;71.90;101934.78;5051108;28;20033;-75
2022/12/05 10:59:20;;;;;;;8.15;3.15;;;;;;;10.26;71.55;101938.06;5052532;28;20036;-76
2022/12/05 11:01:57;;;;;;;8.15;3.75;;;;;;;10.30;72.07;101942.31;5054733;28;20029;-76
2022/12/05 11:04:42;;;;;;;13.07;4.75;;;;;;;10.46;71.64;101929.66;5052377;28;20021;-75
2022/12/05 11:07:31;;;;;;;7.93;4.97;;;;;;;10.32;70.59;101889.28;5050940;28;20102;-74
2022/12/05 11:09:59;;;;;;;14.25;7.15;;;;;;;10.48;71.46;101930.47;5050924;28;20025;-74
2022/12/05 11:12:36;;;;;;;18.50;6.85;;;;;;;10.46;71.20;101924.28;5050450;28;20036;-77
2022/12/05 11:15:24;;;;;;;16.05;6.22;;;;;;;10.50;71.79;101927.66;5050237;28;20025;-75
2022/12/05 11:17:52;;;;;;;11.38;4.35;;;;;;;10.39;71.25;101922.94;5050562;28;20033;-75
2022/12/05 11:20:17;;;;;;;7.25;3.92;;;;;;;10.42;72.12;101928.13;5050377;28;20048;-75
2022/12/05 11:22:44;;;;;;;7.93;4.00;;;;;;;10.52;71.32;101918.53;5048876;28;20055;-74
2022/12/05 11:25:28;;;;;;;7.60;3.80;;;;;;;10.54;71.47;101915.75;5050077;28;20059;-75
2022/12/05 11:27:56;;;;;;;7.03;4.10;;;;;;;10.62;71.85;101919.72;5050396;28;20025;-75
2022/12/05 11:30:26;;;;;;;6.80;3.28;;;;;;;10.74;71.10;101916.28;5050074;28;20376;-75
2022/12/05 11:33:11;;;;;;;7.47;3.97;;;;;;;10.75;70.79;101909.94;5050026;28;20447;-75
2022/12/05 11:35:36;;;;;;;8.63;4.10;;;;;;;10.76;70.34;101914.34;5050003;28;20021;-76
2022/12/05 11:38:04;;;;;;;13.55;3.95;;;;;;;10.79;71.42;101910.63;5050221;28;20036;-74
2022/12/05 11:40:38;;;;;;;11.20;3.75;;;;;;;10.87;70.42;101908.31;5050688;28;20485;-75
2022/12/05 11:43:28;;;;;;;7.88;3.70;;;;;;;10.90;70.36;101903.59;5054362;28;20025;-78
2022/12/05 11:46:02;;;;;;;10.30;3.45;;;;;;;10.94;70.31;101901.59;5053923;28;20054;-74
2022/12/05 11:48:44;;;;;;;8.68;3.40;;;;;;;11.00;70.27;101897.63;5050615;28;20115;-75
2022/12/05 11:51:34;;;;;;;7.70;3.92;;;;;;;10.80;70.14;101894.34;5050039;28;20559;-76
2022/12/05 11:54:12;;;;;;;15.98;4.60;;;;;;;10.84;69.82;101898.59;5049780;28;20440;-74
2022/12/05 11:56:40;;;;;;;4.35;3.10;;;;;;;10.86;69.93;101887.72;5049461;28;20111;-75